Time;durP1;ratioP1;P1;durP2;ratioP2;P2;SDS_P1;SDS_P2;PMS_P1;PMS_P2;Temp;Humidity;BMP_temperature;BMP_pressure;BME280_temperature;BME280_humidity;BME280_pressure;Samples;Min_cycle;Max_cycle;Signal;HPM_P1;HPM_P2
2022/10/06 00:04:23;;;;;;;2.47;1.85;;;;;;;12.96;100.00;102061.44;10379220;28;20057;-68
2022/10/06 00:09:24;;;;;;;11.98;2.88;;;;;;;13.08;100.00;102073.56;10379732;28;20526;-68
2022/10/06 00:14:25;;;;;;;13.35;3.10;;;;;;;13.34;100.00;102088.63;10379525;28;20034;-68
2022/10/06 00:19:25;;;;;;;7.50;2.33;;;;;;;13.43;100.00;102098.34;10377537;28;20026;-68
2022/10/06 00:24:26;;;;;;;11.98;3.00;;;;;;;13.45;100.00;102110.75;10377431;28;20037;-68
2022/10/06 00:29:26;;;;;;;2.92;2.05;;;;;;;13.44;100.00;102124.56;10378310;28;20026;-68
2022/10/06 00:34:27;;;;;;;6.68;2.15;;;;;;;13.36;100.00;102144.50;10377906;28;20089;-68
2022/10/06 00:39:27;;;;;;;11.23;2.45;;;;;;;13.20;100.00;102147.34;10378300;28;20034;-68
2022/10/06 00:44:28;;;;;;;6.70;2.30;;;;;;;13.15;97.85;102155.25;10377618;28;20386;-67
2022/10/06 00:49:30;;;;;;;12.70;2.67;;;;;;;13.18;97.49;102168.47;10377490;28;20366;-67
2022/10/06 00:54:31;;;;;;;10.07;2.25;;;;;;;13.24;96.30;102174.06;10375492;28;20377;-67
2022/10/06 00:59:31;;;;;;;4.97;2.53;;;;;;;13.33;97.81;102190.28;10359461;28;20058;-68
2022/10/06 01:04:34;;;;;;;18.98;3.05;;;;;;;13.19;99.99;102191.91;10359336;28;20034;-67
2022/10/06 01:09:34;;;;;;;6.40;2.45;;;;;;;12.99;98.81;102206.00;10359312;28;20113;-68
2022/10/06 01:14:35;;;;;;;15.27;3.15;;;;;;;13.00;100.00;102206.84;10377014;28;20056;-68
2022/10/06 01:19:49;;;;;;;15.40;4.07;;;;;;;12.90;100.00;102215.25;10358674;28;20041;-67
2022/10/06 01:24:51;;;;;;;7.03;2.33;;;;;;;12.84;100.00;102231.44;10361103;28;20038;-68
2022/10/06 01:29:52;;;;;;;5.72;1.73;;;;;;;12.83;100.00;102243.31;10360107;28;20034;-67
2022/10/06 01:34:53;;;;;;;13.70;4.20;;;;;;;12.69;100.00;102245.78;10358396;28;20117;-68
2022/10/06 01:39:53;;;;;;;14.40;2.60;;;;;;;12.66;100.00;102258.88;10374677;28;20029;-68
2022/10/06 01:44:53;;;;;;;13.32;3.28;;;;;;;12.55;100.00;102263.69;10375567;28;20041;-68
2022/10/06 01:49:54;;;;;;;5.95;2.38;;;;;;;12.57;100.00;102261.66;10375905;28;20381;-68
2022/10/06 01:54:55;;;;;;;11.55;2.67;;;;;;;12.67;100.00;102263.31;10375550;28;20041;-67
2022/10/06 01:59:55;;;;;;;8.00;3.00;;;;;;;12.78;100.00;102273.78;10372856;28;20482;-67
2022/10/06 02:04:55;;;;;;;11.20;3.45;;;;;;;12.75;100.00;102274.13;10373058;28;20034;-68
2022/10/06 02:09:56;;;;;;;7.75;2.65;;;;;;;12.85;100.00;102274.75;10374662;28;20064;-68
2022/10/06 02:14:56;;;;;;;5.03;2.92;;;;;;;12.79;100.00;102295.38;10373551;28;20038;-67
2022/10/06 02:19:57;;;;;;;19.75;2.67;;;;;;;12.85;100.00;102299.22;10373830;28;20050;-67
2022/10/06 02:24:57;;;;;;;3.47;2.05;;;;;;;12.77;100.00;102310.16;10375101;28;20029;-68
2022/10/06 02:29:58;;;;;;;6.57;3.15;;;;;;;12.72;100.00;102310.66;10373674;28;20041;-68
2022/10/06 02:34:59;;;;;;;8.20;2.42;;;;;;;12.86;100.00;102317.25;10374359;28;20037;-67
2022/10/06 02:39:59;;;;;;;13.60;3.97;;;;;;;12.80;100.00;102324.22;10375103;28;20030;-67
2022/10/06 02:44:59;;;;;;;8.20;2.50;;;;;;;12.72;100.00;102335.13;10372914;28;20036;-67
2022/10/06 02:50:00;;;;;;;13.20;2.42;;;;;;;12.65;100.00;102338.75;10379335;28;20069;-68
2022/10/06 02:55:02;;;;;;;14.90;4.32;;;;;;;12.77;100.00;102359.06;10382002;28;20350;-67
2022/10/06 03:00:06;;;;;;;16.00;3.33;;;;;;;12.70;100.00;102358.94;10380345;28;20057;-69
2022/10/06 03:05:06;;;;;;;6.80;2.72;;;;;;;12.83;100.00;102374.69;10382116;28;20034;-68
2022/10/06 03:10:07;;;;;;;11.25;3.10;;;;;;;12.83;100.00;102373.81;10379959;28;20394;-68
2022/10/06 03:15:08;;;;;;;6.40;2.78;;;;;;;12.68;99.00;102390.88;10381730;28;20436;-68
2022/10/06 03:20:08;;;;;;;7.07;2.67;;;;;;;12.57;100.00;102396.66;10380936;28;20037;-69
2022/10/06 03:25:09;;;;;;;7.70;3.15;;;;;;;12.49;100.00;102397.53;10378949;28;20106;-68
2022/10/06 03:30:09;;;;;;;15.35;2.83;;;;;;;12.48;100.00;102408.59;10380511;28;20064;-69
2022/10/06 03:35:10;;;;;;;9.25;2.97;;;;;;;12.49;100.00;102424.72;10382032;28;20034;-69
2022/10/06 03:40:10;;;;;;;4.38;2.55;;;;;;;12.50;100.00;102433.72;10379727;28;20038;-68
2022/10/06 03:45:10;;;;;;;5.55;3.60;;;;;;;12.50;100.00;102431.84;10379155;28;20046;-67
2022/10/06 03:50:11;;;;;;;5.32;2.15;;;;;;;12.36;100.00;102438.00;10379658;28;20034;-68
2022/10/06 03:55:11;;;;;;;6.15;1.65;;;;;;;12.27;100.00;102450.72;10379578;28;20034;-68
2022/10/06 04:00:12;;;;;;;20.13;3.85;;;;;;;12.16;100.00;102453.78;10377011;28;20532;-68
2022/10/06 04:05:13;;;;;;;19.42;4.25;;;;;;;12.18;100.00;102469.91;10377835;28;20037;-67
2022/10/06 04:10:13;;;;;;;10.98;2.75;;;;;;;12.10;100.00;102473.47;10378909;28;20034;-67
2022/10/06 04:15:13;;;;;;;9.82;4.18;;;;;;;12.02;100.00;102481.59;10377449;28;20076;-67
2022/10/06 04:20:14;;;;;;;4.38;2.35;;;;;;;12.03;100.00;102491.47;10379004;28;20029;-67
2022/10/06 04:25:14;;;;;;;3.90;1.85;;;;;;;11.97;100.00;102494.84;10378392;28;20109;-67
2022/10/06 04:30:15;;;;;;;13.73;2.20;;;;;;;11.95;100.00;102505.03;10378876;28;20033;-67
2022/10/06 04:35:16;;;;;;;8.40;2.53;;;;;;;12.05;100.00;102506.56;10379142;28;20030;-68
2022/10/06 04:40:16;;;;;;;6.95;3.20;;;;;;;12.03;100.00;102505.91;10361237;28;20442;-70
2022/10/06 04:45:16;;;;;;;5.20;2.75;;;;;;;11.95;100.00;102511.28;10378333;28;20065;-70
2022/10/06 04:50:17;;;;;;;31.25;4.03;;;;;;;11.86;100.00;102520.44;10377378;28;20458;-71
2022/10/06 04:55:17;;;;;;;5.00;2.75;;;;;;;11.78;100.00;102521.25;10376597;28;20532;-67
2022/10/06 05:00:24;;;;;;;6.10;2.90;;;;;;;11.85;100.00;102535.88;10375603;28;20132;-68
2022/10/06 05:05:24;;;;;;;20.05;4.43;;;;;;;11.71;100.00;102543.75;10376454;28;20355;-74
2022/10/06 05:10:26;;;;;;;16.33;3.65;;;;;;;11.67;100.00;102556.81;10375402;28;20043;-70
2022/10/06 05:15:28;;;;;;;2.20;1.80;;;;;;;11.61;100.00;102560.19;10376830;28;20029;-72
2022/10/06 05:20:28;;;;;;;11.18;2.45;;;;;;;11.55;100.00;102563.56;10377004;28;20049;-68
2022/10/06 05:25:28;;;;;;;12.07;3.42;;;;;;;11.52;100.00;102574.72;10376580;28;20450;-68
2022/10/06 05:30:29;;;;;;;21.23;5.45;;;;;;;11.52;100.00;102575.59;10376275;28;20037;-68
2022/10/06 05:35:29;;;;;;;7.88;3.38;;;;;;;11.47;100.00;102586.09;10376043;28;20065;-68
2022/10/06 05:40:29;;;;;;;8.55;2.85;;;;;;;11.35;100.00;102590.09;10376026;28;20469;-69
2022/10/06 05:45:30;;;;;;;20.23;3.58;;;;;;;11.27;100.00;102609.88;10372793;28;20375;-69
2022/10/06 05:50:30;;;;;;;13.82;2.53;;;;;;;11.23;100.00;102611.22;10375340;28;20072;-69
2022/10/06 05:55:30;;;;;;;3.55;1.83;;;;;;;11.29;100.00;102618.69;10374449;28;20037;-69
2022/10/06 06:00:31;;;;;;;6.20;2.30;;;;;;;11.28;100.00;102608.88;10373832;28;20054;-69
2022/10/06 06:05:31;;;;;;;7.40;2.63;;;;;;;11.18;100.00;102611.69;10375508;28;20040;-69
2022/10/06 06:10:32;;;;;;;11.63;3.60;;;;;;;11.22;100.00;102627.63;10372519;28;20026;-69
2022/10/06 06:20:58;;;;;;;11.07;3.35;;;;;;;11.40;100.00;102637.41;10374794;28;20033;-69
2022/10/06 06:25:59;;;;;;;5.80;2.95;;;;;;;11.57;100.00;102651.06;10373415;28;20021;-69
2022/10/06 06:31:10;;;;;;;9.18;3.67;;;;;;;12.11;100.00;102648.97;10374072;28;20030;-68
2022/10/06 06:36:14;;;;;;;18.60;3.47;;;;;;;12.85;100.00;102660.81;10374924;28;20038;-68
2022/10/06 06:41:16;;;;;;;2.55;1.83;;;;;;;13.51;100.00;102667.06;10372841;28;20034;-69
2022/10/06 06:46:17;;;;;;;11.05;3.65;;;;;;;14.19;100.00;102674.63;10373611;28;20041;-69
2022/10/06 06:51:22;;;;;;;12.48;3.38;;;;;;;14.81;100.00;102681.13;10372343;28;20029;-69
2022/10/06 06:56:23;;;;;;;4.15;1.88;;;;;;;15.25;100.00;102694.03;10399112;28;20030;-68
2022/10/06 07:01:23;;;;;;;20.17;3.65;;;;;;;15.74;100.00;102704.50;10402536;28;20061;-69
2022/10/06 07:06:26;;;;;;;6.68;2.72;;;;;;;16.00;100.00;102707.59;10403556;28;20056;-69
2022/10/06 07:11:29;;;;;;;7.05;2.40;;;;;;;16.37;100.00;102711.25;10405079;28;20033;-69
2022/10/06 07:27:13;;;;;;;17.60;3.88;;;;;;;17.53;100.00;102730.28;10370408;28;20026;-69
2022/10/06 07:32:13;;;;;;;1.92;1.70;;;;;;;17.72;93.01;102736.97;10373157;28;20366;-69
2022/10/06 07:37:13;;;;;;;4.35;2.25;;;;;;;18.01;94.74;102752.34;10378598;28;20034;-69
2022/10/06 07:42:15;;;;;;;3.97;1.92;;;;;;;18.58;97.64;102759.38;10379183;28;20057;-70
2022/10/06 07:47:15;;;;;;;4.63;2.35;;;;;;;19.16;97.35;102754.25;10380447;28;20057;-69
2022/10/06 07:52:16;;;;;;;7.45;2.03;;;;;;;19.50;95.21;102763.38;10384082;28;20148;-68
2022/10/06 07:57:17;;;;;;;5.65;2.30;;;;;;;19.94;95.60;102759.09;10391859;28;20033;-68
2022/10/06 08:02:18;;;;;;;7.93;2.45;;;;;;;20.17;79.51;102775.13;10396284;28;20061;-69
2022/10/06 08:07:19;;;;;;;3.85;2.33;;;;;;;20.69;84.56;102792.53;10408505;28;20082;-69
2022/10/06 08:12:32;;;;;;;8.55;2.13;;;;;;;19.10;71.48;102796.28;10406514;28;20033;-70
2022/10/06 08:17:33;;;;;;;4.30;1.25;;;;;;;19.37;80.21;102801.81;10385303;28;20477;-71
2022/10/06 08:22:35;;;;;;;7.45;2.20;;;;;;;18.83;80.60;102805.53;10379435;28;20037;-70
2022/10/06 08:27:35;;;;;;;8.50;2.20;;;;;;;18.63;78.53;102819.94;10379609;28;20438;-69
2022/10/06 08:32:36;;;;;;;2.35;2.10;;;;;;;19.92;80.49;102810.72;10361638;28;20110;-69
2022/10/06 08:37:36;;;;;;;1.77;1.65;;;;;;;20.53;74.25;102815.03;10378466;28;20076;-69
2022/10/06 08:42:41;;;;;;;2.00;1.90;;;;;;;20.86;68.02;102835.00;10375630;28;20330;-69
2022/10/06 08:47:49;;;;;;;3.60;2.28;;;;;;;19.92;66.69;102838.22;10358977;28;20026;-69
2022/10/06 08:53:04;;;;;;;8.25;2.03;;;;;;;19.92;74.74;102843.72;10359422;28;20033;-68
2022/10/06 08:58:31;;;;;;;1.30;1.23;;;;;;;20.58;72.41;102854.63;10376564;28;20029;-68
2022/10/06 09:03:32;;;;;;;4.00;2.55;;;;;;;21.55;76.87;102855.38;10375640;28;20477;-68
2022/10/06 09:08:39;;;;;;;7.93;2.30;;;;;;;20.78;76.53;102856.47;10375553;28;20076;-69
2022/10/06 09:13:52;;;;;;;3.25;2.05;;;;;;;20.54;78.64;102867.09;10376368;28;20030;-69
2022/10/06 09:19:06;;;;;;;8.57;1.75;;;;;;;20.21;71.69;102875.41;10361152;28;20022;-69
2022/10/06 09:24:15;;;;;;;5.18;2.63;;;;;;;20.43;73.88;102863.09;10373943;28;20025;-70
2022/10/06 09:29:15;;;;;;;1.85;1.75;;;;;;;20.91;75.30;102870.16;10374251;28;20036;-69
2022/10/06 09:34:20;;;;;;;3.80;2.30;;;;;;;20.94;72.86;102875.25;10356952;28;20113;-69
2022/10/06 09:39:23;;;;;;;4.80;2.13;;;;;;;20.83;72.67;102878.66;10374512;28;20476;-69
2022/10/06 09:44:26;;;;;;;4.88;2.28;;;;;;;21.28;67.39;102871.25;10375331;28;20092;-70
2022/10/06 09:49:30;;;;;;;12.73;2.85;;;;;;;21.35;75.67;102891.38;10373196;28;20041;-69
2022/10/06 09:54:30;;;;;;;4.97;1.70;;;;;;;19.93;67.90;102887.50;10373532;28;20033;-68
2022/10/06 09:59:34;;;;;;;6.57;2.13;;;;;;;19.05;73.24;102889.44;10373335;28;20117;-68
2022/10/06 10:04:37;;;;;;;6.35;2.22;;;;;;;19.28;73.00;102891.84;10357543;28;20406;-69
2022/10/06 10:09:40;;;;;;;1.98;1.83;;;;;;;21.04;70.44;102883.88;10356298;28;20070;-69
2022/10/06 10:14:41;;;;;;;9.45;2.65;;;;;;;21.91;72.07;102889.69;10372939;28;20134;-69
2022/10/06 10:19:42;;;;;;;4.75;2.20;;;;;;;22.57;70.53;102893.75;10372828;28;20370;-69
2022/10/06 10:25:00;;;;;;;12.43;2.75;;;;;;;22.48;56.93;102906.16;10372417;28;20030;-69
2022/10/06 10:30:08;;;;;;;5.93;1.92;;;;;;;22.63;60.78;102905.78;10373041;28;20038;-69
2022/10/06 10:35:12;;;;;;;4.32;2.17;;;;;;;23.10;62.78;102917.13;10373676;28;20030;-69
2022/10/06 10:40:32;;;;;;;9.70;2.65;;;;;;;22.89;60.36;102911.00;10372707;28;20033;-69
2022/10/06 10:45:34;;;;;;;2.90;2.13;;;;;;;22.08;69.59;102912.06;10373955;28;20041;-69
2022/10/06 10:50:53;;;;;;;3.13;1.77;;;;;;;22.04;63.59;102908.88;10372005;28;20037;-69
2022/10/06 10:55:53;;;;;;;10.20;2.13;;;;;;;22.63;53.06;102911.31;10371422;28;20026;-69
2022/10/06 11:00:57;;;;;;;8.02;2.55;;;;;;;22.63;54.20;102909.41;10355479;28;20045;-69
2022/10/06 11:06:48;;;;;;;3.17;2.30;;;;;;;22.41;61.88;102911.75;10371717;28;20029;-69
2022/10/06 11:11:57;;;;;;;7.70;2.58;;;;;;;22.58;60.82;102920.28;10333242;28;20132;-69
2022/10/06 11:17:04;;;;;;;10.98;2.53;;;;;;;22.50;60.64;102923.34;10380057;28;20033;-68
2022/10/06 11:22:13;;;;;;;9.27;1.98;;;;;;;21.50;61.85;102921.38;10380255;28;20029;-69
2022/10/06 11:27:22;;;;;;;8.20;1.60;;;;;;;20.00;67.89;102934.25;10380277;28;20466;-69
2022/10/06 11:32:43;;;;;;;7.53;1.95;;;;;;;21.11;65.78;102920.50;10380487;28;20029;-68
2022/10/06 11:37:55;;;;;;;3.03;2.25;;;;;;;21.93;65.27;102925.31;10380419;28;20025;-69
2022/10/06 11:43:11;;;;;;;4.80;2.22;;;;;;;22.12;65.53;102929.00;10379079;28;20033;-69
2022/10/06 11:48:25;;;;;;;5.13;2.60;;;;;;;22.27;62.52;102929.50;10362263;28;20511;-69
2022/10/06 11:53:35;;;;;;;2.00;1.88;;;;;;;22.48;64.60;102929.09;10378185;28;20083;-69
2022/10/06 11:59:12;;;;;;;3.00;2.40;;;;;;;22.23;61.37;102923.59;10363820;28;20022;-68
2022/10/06 12:04:14;;;;;;;11.52;2.35;;;;;;;22.08;61.71;102925.84;10364707;28;20095;-69
2022/10/06 12:09:24;;;;;;;5.20;2.92;;;;;;;22.15;58.66;102925.78;10378698;28;20022;-69
2022/10/06 12:15:02;;;;;;;3.20;1.75;;;;;;;22.01;62.71;102922.28;10378898;28;20145;-69
2022/10/06 12:20:03;;;;;;;17.85;2.80;;;;;;;22.05;63.52;102890.44;10376840;28;20080;-68
2022/10/06 12:25:49;;;;;;;12.23;2.20;;;;;;;22.06;61.46;102909.50;10377560;28;20099;-68
2022/10/06 12:31:10;;;;;;;2.08;1.58;;;;;;;21.99;61.21;102905.97;10372708;28;20357;-69
2022/10/06 12:36:27;;;;;;;3.97;2.63;;;;;;;21.83;62.25;102910.13;10377242;28;20117;-68
2022/10/06 12:41:59;;;;;;;3.28;1.70;;;;;;;21.88;65.13;102914.09;10377421;28;20358;-69
2022/10/06 12:47:02;;;;;;;6.68;2.20;;;;;;;21.62;61.22;102904.97;10380774;28;20030;-68
2022/10/06 12:52:19;;;;;;;3.03;2.20;;;;;;;21.56;60.54;102903.09;10362434;28;20105;-69
2022/10/06 12:57:19;;;;;;;2.78;2.28;;;;;;;21.32;56.38;102904.72;10376002;28;20021;-69
2022/10/06 13:02:29;;;;;;;1.70;1.60;;;;;;;20.90;57.24;102913.38;10379126;28;20081;-69
2022/10/06 13:07:31;;;;;;;2.90;2.05;;;;;;;20.83;54.58;102911.69;10381641;28;20025;-68
2022/10/06 13:12:36;;;;;;;5.07;2.33;;;;;;;20.78;57.12;102906.03;10377338;28;20029;-68
2022/10/06 13:18:06;;;;;;;1.15;1.15;;;;;;;20.61;56.64;102900.13;10379928;28;20034;-68
2022/10/06 13:23:23;;;;;;;4.22;2.00;;;;;;;20.39;58.22;102903.13;10366326;28;20091;-68
2022/10/06 13:28:43;;;;;;;11.45;2.08;;;;;;;20.33;57.24;102906.72;10376287;28;20029;-69
2022/10/06 13:33:45;;;;;;;2.03;1.60;;;;;;;20.38;57.63;102915.16;10377907;28;20044;-68
2022/10/06 13:38:45;;;;;;;3.60;2.53;;;;;;;20.26;56.63;102910.53;10341268;28;20339;-68
2022/10/06 13:44:00;;;;;;;4.78;1.58;;;;;;;20.09;58.86;102899.97;10374172;28;20029;-67
2022/10/06 13:49:02;;;;;;;8.27;2.85;;;;;;;19.97;63.40;102899.78;10374640;28;20018;-69
2022/10/06 13:54:20;;;;;;;5.88;2.53;;;;;;;19.79;59.14;102898.72;10356448;28;20080;-67
2022/10/06 13:59:28;;;;;;;3.60;1.73;;;;;;;19.53;59.34;102919.59;10372744;28;20041;-68
2022/10/06 14:04:29;;;;;;;3.28;1.92;;;;;;;19.48;61.43;102919.34;10375219;28;20069;-68
2022/10/06 14:09:31;;;;;;;2.83;2.17;;;;;;;19.43;58.55;102913.63;10374945;28;20058;-68
2022/10/06 14:14:32;;;;;;;3.80;2.78;;;;;;;19.23;65.31;102916.31;10371554;28;20025;-67
2022/10/06 14:19:37;;;;;;;8.32;2.78;;;;;;;19.24;65.87;102907.88;10371881;28;20057;-68
2022/10/06 14:24:38;;;;;;;8.77;2.40;;;;;;;18.86;65.02;102892.91;10374100;28;20465;-67
2022/10/06 14:29:40;;;;;;;5.32;1.70;;;;;;;18.52;65.87;102909.19;10357536;28;20056;-68
2022/10/06 14:34:40;;;;;;;7.70;1.98;;;;;;;18.13;64.11;102902.38;10374269;28;20347;-68
2022/10/06 14:39:41;;;;;;;3.53;2.13;;;;;;;18.26;61.64;102890.66;10374617;28;20029;-68
2022/10/06 14:44:42;;;;;;;4.80;2.55;;;;;;;18.13;65.84;102890.56;10375699;28;20030;-68
2022/10/06 14:49:44;;;;;;;1.92;1.50;;;;;;;17.96;64.28;102897.38;10381732;28;20466;-68
2022/10/06 14:54:44;;;;;;;8.90;2.40;;;;;;;17.61;64.84;102889.88;10363648;28;20041;-68
2022/10/06 14:59:44;;;;;;;18.23;3.80;;;;;;;17.10;65.58;102897.31;10380844;28;20105;-67
2022/10/06 15:04:45;;;;;;;14.18;2.33;;;;;;;16.70;66.23;102881.22;10380594;28;20121;-68
2022/10/06 15:09:45;;;;;;;2.10;1.80;;;;;;;16.25;65.05;102883.09;10380766;28;20062;-68
2022/10/06 15:14:45;;;;;;;11.38;2.80;;;;;;;16.07;67.27;102874.38;10380457;28;20374;-67
2022/10/06 15:19:46;;;;;;;4.43;2.28;;;;;;;15.91;68.42;102869.94;10379369;28;20026;-68
2022/10/06 15:24:49;;;;;;;19.25;3.08;;;;;;;15.80;68.02;102867.66;10380832;28;20038;-68
2022/10/06 15:29:49;;;;;;;7.35;2.75;;;;;;;15.64;67.12;102859.56;10378925;28;20030;-67
2022/10/06 15:34:50;;;;;;;4.85;2.50;;;;;;;15.64;67.68;102863.16;10380003;28;20040;-68
2022/10/06 15:39:51;;;;;;;4.50;2.25;;;;;;;15.52;67.96;102856.41;10379665;28;20029;-68
2022/10/06 15:44:51;;;;;;;3.88;2.30;;;;;;;15.47;68.75;102853.38;10379807;28;20418;-67
2022/10/06 15:49:51;;;;;;;10.68;2.22;;;;;;;15.33;68.13;102849.56;10361858;28;20033;-67
2022/10/06 15:54:52;;;;;;;7.38;2.15;;;;;;;15.25;68.72;102855.06;10378645;28;20033;-69
2022/10/06 15:59:53;;;;;;;10.13;2.28;;;;;;;15.16;68.12;102862.47;10378738;28;20430;-68
2022/10/06 16:05:33;;;;;;;5.88;2.50;;;;;;;15.17;68.77;102853.25;10377065;28;20164;-68
2022/10/06 16:10:16;;;;;;;8.98;2.88;;;;;;;15.00;68.59;102851.66;10376686;28;20501;-67
2022/10/06 16:15:17;;;;;;;5.60;1.98;;;;;;;15.01;70.51;102854.19;10377733;28;20072;-67
2022/10/06 16:20:17;;;;;;;4.80;2.45;;;;;;;14.90;71.09;102846.44;10377128;28;20026;-67
2022/10/06 16:25:18;;;;;;;4.15;2.42;;;;;;;14.65;71.65;102852.00;10378925;28;20040;-67
2022/10/06 16:30:18;;;;;;;4.00;2.58;;;;;;;14.65;71.91;102852.00;10376818;28;20041;-67
2022/10/06 16:35:19;;;;;;;6.65;2.50;;;;;;;14.55;72.36;102843.16;10360542;28;20072;-68
2022/10/06 16:40:21;;;;;;;4.97;2.33;;;;;;;14.33;72.65;102830.28;10377522;28;20037;-67
2022/10/06 16:45:21;;;;;;;1.67;1.58;;;;;;;14.38;73.15;102846.94;10376062;28;20053;-68
2022/10/06 16:50:22;;;;;;;10.13;2.58;;;;;;;14.27;72.87;102852.78;10377146;28;20056;-67
2022/10/06 16:55:22;;;;;;;1.67;1.58;;;;;;;14.22;73.67;102847.81;10376036;28;20026;-67
2022/10/06 17:00:24;;;;;;;5.47;1.95;;;;;;;14.08;73.58;102835.78;10376387;28;20054;-67
2022/10/06 17:05:25;;;;;;;10.73;3.38;;;;;;;13.94;73.57;102842.78;10374746;28;20060;-68
2022/10/06 17:10:25;;;;;;;12.98;3.08;;;;;;;13.88;74.44;102834.44;10374047;28;20049;-68
2022/10/06 17:15:25;;;;;;;11.82;2.97;;;;;;;13.70;74.96;102840.94;10376664;28;20120;-68
2022/10/06 17:20:26;;;;;;;9.18;2.40;;;;;;;13.58;75.69;102831.41;10375111;28;20022;-67
2022/10/06 17:25:26;;;;;;;7.43;3.22;;;;;;;13.44;75.74;102832.94;10375608;28;20454;-68
2022/10/06 17:30:26;;;;;;;12.65;3.22;;;;;;;13.30;76.68;102843.63;10341954;28;20120;-68
2022/10/06 17:35:27;;;;;;;2.47;2.15;;;;;;;13.16;77.61;102843.22;10374325;28;20065;-68
2022/10/06 17:40:28;;;;;;;9.73;3.10;;;;;;;13.16;78.76;102845.94;10375154;28;20041;-68
2022/10/06 17:45:28;;;;;;;5.57;3.50;;;;;;;13.04;80.01;102842.69;10376907;28;20034;-67
2022/10/06 17:50:29;;;;;;;13.43;4.07;;;;;;;13.12;79.87;102843.75;10375560;28;20030;-68
2022/10/06 17:55:29;;;;;;;7.18;2.15;;;;;;;13.06;79.37;102847.97;10375270;28;20041;-68
2022/10/06 18:00:30;;;;;;;8.82;3.00;;;;;;;12.99;80.12;102852.38;10373309;28;20054;-67
2022/10/06 18:05:31;;;;;;;7.80;3.58;;;;;;;12.92;81.43;102851.31;10374381;28;20195;-68
2022/10/06 18:15:50;;;;;;;11.88;3.85;;;;;;;12.75;81.40;102850.44;10374124;28;20405;-67
2022/10/06 18:20:51;;;;;;;11.90;3.25;;;;;;;12.69;81.51;102845.63;10374289;28;20030;-67
2022/10/06 18:25:52;;;;;;;12.27;2.33;;;;;;;12.49;81.58;102826.88;10375525;28;20058;-67
2022/10/06 18:30:52;;;;;;;3.50;2.60;;;;;;;12.48;82.73;102827.06;10373451;28;20030;-67
2022/10/06 18:35:54;;;;;;;6.72;3.42;;;;;;;12.46;83.33;102834.50;10373174;28;20030;-68
2022/10/06 18:40:55;;;;;;;4.88;2.88;;;;;;;12.37;82.68;102830.88;10357303;28;20026;-67
2022/10/06 18:51:14;;;;;;;11.70;4.45;;;;;;;12.29;84.27;102826.28;10372396;28;20033;-68
2022/10/06 18:56:15;;;;;;;11.43;4.88;;;;;;;12.31;86.17;102824.22;10372083;28;20034;-68
2022/10/06 19:01:16;;;;;;;11.23;3.25;;;;;;;12.29;86.37;102811.84;10373226;28;20085;-69
2022/10/06 19:06:18;;;;;;;12.80;4.28;;;;;;;12.34;87.12;102813.03;10371766;28;20375;-71
2022/10/06 19:16:38;;;;;;;17.48;4.90;;;;;;;12.32;86.10;102819.69;10372550;28;20398;-69
2022/10/06 19:21:41;;;;;;;13.23;4.15;;;;;;;12.21;85.90;102812.63;10372458;28;20034;-70
2022/10/06 19:26:42;;;;;;;11.77;4.28;;;;;;;12.14;86.66;102811.59;10371971;28;20062;-70
2022/10/06 19:31:43;;;;;;;7.88;3.45;;;;;;;12.05;86.44;102816.13;10376362;28;20083;-69
2022/10/06 19:36:51;;;;;;;9.75;3.33;;;;;;;12.02;87.22;102818.28;10379946;28;20053;-68
2022/10/06 19:47:12;;;;;;;15.68;4.18;;;;;;;12.14;88.72;102817.03;10378677;28;20470;-68
2022/10/06 19:52:12;;;;;;;17.20;4.07;;;;;;;12.10;89.29;102811.06;10378510;28;20389;-70
2022/10/06 19:57:13;;;;;;;16.75;5.68;;;;;;;12.00;89.43;102818.47;10377882;28;20077;-68
2022/10/06 20:02:13;;;;;;;13.75;5.03;;;;;;;11.90;88.51;102812.31;10379356;28;20470;-69
2022/10/06 20:07:14;;;;;;;15.73;3.97;;;;;;;11.79;91.56;102820.66;10377482;28;20049;-70
2022/10/06 20:12:15;;;;;;;6.50;3.03;;;;;;;11.74;89.87;102812.13;10377758;28;20038;-68
2022/10/06 20:17:16;;;;;;;10.25;3.13;;;;;;;11.71;89.89;102815.16;10378898;28;20072;-67
2022/10/06 20:22:16;;;;;;;16.60;3.25;;;;;;;11.67;89.45;102821.91;10376954;28;20045;-67
2022/10/06 20:27:17;;;;;;;17.77;3.78;;;;;;;11.60;90.41;102810.84;10377410;28;20072;-68
2022/10/06 20:32:18;;;;;;;5.78;3.40;;;;;;;11.62;90.89;102808.84;10377855;28;20038;-68
2022/10/06 20:37:18;;;;;;;9.73;4.70;;;;;;;11.63;91.74;102819.53;10377575;28;20030;-70
2022/10/06 20:42:19;;;;;;;20.98;3.45;;;;;;;11.61;91.78;102815.25;10376806;28;20050;-67
2022/10/06 20:47:20;;;;;;;18.15;4.50;;;;;;;11.60;91.22;102821.69;10375703;28;20429;-67
2022/10/06 20:52:21;;;;;;;16.48;3.92;;;;;;;11.53;91.40;102815.22;10359830;28;20041;-67
2022/10/06 20:57:22;;;;;;;16.92;5.50;;;;;;;11.43;91.39;102815.28;10375676;28;20045;-68
2022/10/06 21:02:22;;;;;;;17.90;4.57;;;;;;;11.38;90.99;102812.19;10359645;28;20058;-70
2022/10/06 21:07:23;;;;;;;8.00;4.43;;;;;;;11.23;91.20;102801.06;10358924;28;20045;-68
2022/10/06 21:12:23;;;;;;;8.27;4.18;;;;;;;11.17;91.43;102804.38;10375580;28;20034;-71
2022/10/06 21:17:23;;;;;;;9.70;4.95;;;;;;;11.14;91.08;102796.56;10375122;28;20033;-69
2022/10/06 21:22:24;;;;;;;11.75;3.85;;;;;;;11.04;91.76;102798.47;10376497;28;20183;-70
2022/10/06 21:27:25;;;;;;;6.03;4.03;;;;;;;11.00;92.35;102797.91;10376412;28;20034;-69
2022/10/06 21:32:25;;;;;;;14.75;4.40;;;;;;;11.01;92.12;102788.81;10341785;28;20382;-68
2022/10/06 21:37:26;;;;;;;11.68;3.78;;;;;;;11.05;92.47;102797.47;10374983;28;20037;-67
2022/10/06 21:42:26;;;;;;;16.20;4.32;;;;;;;11.06;93.04;102786.47;10374568;28;20034;-68
2022/10/06 21:47:26;;;;;;;22.73;4.47;;;;;;;11.15;93.61;102781.97;10375888;28;20100;-68
2022/10/06 21:52:27;;;;;;;22.90;4.10;;;;;;;11.12;92.78;102775.00;10374604;28;20066;-68
2022/10/06 21:57:27;;;;;;;5.97;2.60;;;;;;;11.11;93.32;102762.47;10374497;28;20426;-68
2022/10/06 22:02:27;;;;;;;9.63;4.97;;;;;;;11.10;93.23;102749.94;10376009;28;20058;-67
2022/10/06 22:07:28;;;;;;;6.07;3.97;;;;;;;11.10;94.17;102747.22;10374019;28;20034;-68
2022/10/06 22:12:28;;;;;;;28.63;5.07;;;;;;;11.06;94.18;102737.66;10373755;28;20037;-67
2022/10/06 22:17:28;;;;;;;15.90;4.32;;;;;;;11.09;95.02;102731.94;10376138;28;20056;-67
2022/10/06 22:22:29;;;;;;;19.45;4.43;;;;;;;11.21;95.82;102740.69;10373477;28;20060;-68
2022/10/06 22:27:29;;;;;;;7.95;4.03;;;;;;;11.10;95.63;102725.53;10373884;28;20470;-68
2022/10/06 22:32:30;;;;;;;10.18;2.90;;;;;;;11.07;95.36;102716.81;10374566;28;20133;-68
2022/10/06 22:37:30;;;;;;;6.63;3.10;;;;;;;11.02;94.75;102708.31;10374224;28;20034;-68
2022/10/06 22:42:31;;;;;;;15.30;5.13;;;;;;;11.07;95.10;102700.56;10372725;28;20409;-67
2022/10/06 22:47:31;;;;;;;8.27;2.75;;;;;;;11.13;95.14;102695.34;10372442;28;20041;-67
2022/10/06 22:52:31;;;;;;;8.60;3.38;;;;;;;11.22;95.73;102690.84;10373604;28;20049;-67
2022/10/06 22:57:32;;;;;;;9.13;3.00;;;;;;;11.26;95.93;102684.09;10372195;28;20195;-68
2022/10/06 23:02:32;;;;;;;16.38;3.67;;;;;;;11.22;95.84;102688.13;10373896;28;20123;-68
2022/10/06 23:07:32;;;;;;;9.88;3.70;;;;;;;11.31;98.36;102681.78;10379625;28;20037;-68
2022/10/06 23:12:33;;;;;;;22.13;5.72;;;;;;;11.46;99.43;102681.22;10381637;28;20065;-68
2022/10/06 23:17:33;;;;;;;20.35;2.70;;;;;;;11.48;99.11;102671.03;10381089;28;20371;-67
2022/10/06 23:22:34;;;;;;;16.17;4.60;;;;;;;11.50;99.62;102674.44;10380354;28;20076;-68
2022/10/06 23:27:34;;;;;;;17.05;4.30;;;;;;;11.51;100.00;102666.13;10378738;28;20046;-67
2022/10/06 23:32:36;;;;;;;15.68;4.05;;;;;;;11.55;99.32;102656.69;10380514;28;20037;-68
2022/10/06 23:37:37;;;;;;;10.02;3.20;;;;;;;11.50;99.50;102647.31;10380375;28;20042;-68
2022/10/06 23:42:37;;;;;;;15.45;4.63;;;;;;;11.42;99.27;102650.81;10363032;28;20465;-68